Mount Auburn, IL (62547)

01:06 AM CDT die 29o March, anno 2015 (GMT -0500)
APPLEVILLE | | Change Station
CLOSE
Current Station
Personal Weather Stations
Location: Mt Auburn, IL
Elevation: 607 ft
Nearby Weather Stations

Elev 607 ft 39.80 °N, 89.14 °W | Updated 3 minutes ago

Serena
Serena
29.5 °F
Feels Like 30 °F
N
0.0
Ventus Variabilis Ventus from Magis Auster quam Eurus
Gusts 0.0 mph

Hodie
High -- | Low -- °F
--% Chance of Precip.
Yesterday
High -- | Low -- °F
Precip. -- in
6:46 AM 7:17 PM
Waxing Gibbous, 69% visible
Pressio 30.29 in
Visibilitas 10.0 milia passuum
Clouds Serena
Frigus Venti 30 °F
Frigus in quo Ros apparet -7 °F
Umor 20%
Rainfall -999.00 in
Snow Depth Not available.
UV 0 out of 12
Pollen 4.30 out of 12
Air Quality Not available.
Flu Activity Not available.
METAR KTAZ 290555Z AUTO 15009KT 10SM CLR 00/M06 A3029 RMK AO2

More Conditions Fewer Conditions

Pressio 30.29 in
Visibilitas 10.0 milia passuum
Clouds Serena
Frigus Venti 30 °F
Frigus in quo Ros apparet -7 °F
Umor 20%
Rainfall -999.00 in
Snow Depth Not available.
UV 0 out of 12
Pollen 4.30 out of 12
Air Quality Not available.
Flu Activity Not available.
METAR KTAZ 290555Z AUTO 15009KT 10SM CLR 00/M06 A3029 RMK AO2

More Conditions Fewer Conditions

10-Day Weather Forecast

Almanac

Astronomy

Mar. 29, 2015 Rise Set
Actual Time
Civil Twilight
Nautical Twilight
Astronomical Twilight
Moon
Length Of Visible Light
Length of Day
Tomorrow will be .
, % of the Moon is Illuminated

Today's Extremes

State Highs State Lows

Community

WunderPhotos

Upload Photos

1,809,186 photos uploaded!

WunderBlogs® & News

Nearby

Air Quality

  Air Quality AQ Index Pollutant
Not available.

Snow Depth

Station Depth Elevation

Earthquake Activity

City Distance Mag. Time & Date
Minimum magnitude displayed is 2.5.

Coastal Water Temperatures

Locus Calor

Stations

Nearby Weather Stations

Station Location Temp Frigus Venti Frigus in quo Ros apparet Umor Ventus Precip. Elev Renovata Type